KEGEKSEZ

Guest
Details From KEGE - EAGLE CO RGNL
To KSEZ - Sedona
Flight Number -
Tags generated
Created
Modified
Stats Distance 398 nm / 737 km
Max Altitude 24,900 ft / 7,590 m
Waypoints 5
Social Downloads 0
Likes 0
Share VATSIM

Download

Looking for another format? Having issues loading an existing format? Contact us
Advertisement - Login to hide

Notes

Basic altitude profile: - Ascent Rate: 2500ft/min - Ascent Speed: 250kts - Cruise Altitude: 35000ft - Cruise Speed: 420kts - Descent Rate: 1500ft/min - Descent Speed: 250kts Options: - Use NATs: yes - Use PACOTS: yes - Use low airways: yes - Use high airways: yes

Route

KEGE HBU J128 TBC KSEZ

ID Type Via Altitude Latitude Longitude Leg Dist Tot Dist Heading (true) Name
O KEGE APT - 0 ft / 0 m 39.64257˚ -106.91770˚ - 0 nm - EAGLE CO RGNL
HBU DME - 24,600 ft / 7,498 m 38.45215˚ -107.03979˚ 71 nm 71 nm 185° / 185° BLUE MESA VOR-DME
LRAIN FIX J128 (AWY-HI) 24,900 ft / 7,590 m 36.51783˚ -110.58665˚ 205 nm 276 nm 237° / 234° -
TBC DME J128 (AWY-HI) 20,000 ft / 6,096 m 36.12131˚ -111.26959˚ 40 nm 317 nm 234° / 234° TUBA CITY VORTAC
O KSEZ APT - 0 ft / 0 m 34.84861˚ -111.78848˚ 80 nm 398 nm 199° / 198° Sedona

Altitude Profile

Advertisement - Login to hide

Weather


0- 5 10 15 20 25 30 35+ Temperature / ° C

Clouds and Precipitation
Forecast for 2018-05-25 00:00 UTC. Updated 5 hours ago

Ground ~20,000 ft ~40,000 ft Winds

KEGE

Details ICAO KEGE (EGE)
Name EAGLE CO RGNL
Region United States
Timezone America/Denver (UTC-6.0)
Stats Elevation 6,540 ft / 1,993 m (AMSL)
Location 39.642567° -106.917696°
Runways 1
Magnetic Variation 9.119° E

METAR

KEGE 250356Z AUTO 06006KT 10SM CLR 16/M03 A3022 RMK AO2 SLP188 T01561028

Decode

TAF

KEGE 242322Z 2500/2524 26010KT P6SM SCT110 FM250300 VRB04KT P6SM FEW250 FM251900 24006KT P6SM SKC FM252100 23012G19KT P6SM FEW250 AMD LTD TO CLD VIS AND WIND 2505/2513

Decode

Departure Runways

ID Width Length Bearing (true) Bearing (mag) Surface Threshold Offset Overrun Length
07 150 ft / 46 m 7,981 ft / 2,433 m 81.90° 72.78° Asphalt 0 ft / 0 m 0 ft / 0 m
25 150 ft / 46 m 7,981 ft / 2,433 m 261.92° 252.80° Asphalt 0 ft / 0 m 0 ft / 0 m

KSEZ

Details ICAO KSEZ (SDX)
Name Sedona
Region United States
Timezone America/Phoenix (UTC-7.0)
Stats Elevation 4,827 ft / 1,471 m (AMSL)
Location 34.848607° -111.788482°
Runways 1
Magnetic Variation 10.417° E

METAR

KSEZ 250355Z AUTO 18004KT 10SM CLR 22/M05 A3014 RMK AO2

Decode

TAF

TAF KSEZ 242333Z 2500/2524 17012G20KT P6SM SKC FM250300 VRB05KT P6SM SKC FM250900 06006KT P6SM SKC FM251930 19010G22KT P6SM SKC

Decode

Destination Runways

ID Width Length Bearing (true) Bearing (mag) Surface Threshold Offset Overrun Length
03 100 ft / 30 m 5,130 ft / 1,564 m 45.63° 35.21° Asphalt 0 ft / 0 m 0 ft / 0 m
21 100 ft / 30 m 5,130 ft / 1,564 m 225.64° 215.22° Asphalt 0 ft / 0 m 0 ft / 0 m